Overview Statistics Trail Chart Weather Telemetry Raw packets
 

This is the latest recevied weather packets stored in our database for station/object K3RUP-1. If no packets are shown the sender has not sent any weather packets the latest 10 day(s).

<< 80 81 82 83 84 85 86 >>
Time Temp. Humidity Pressure Rain* Wind** Luminosity Snow
1788111162 30.56° C 67% 1019.9 hPa 0 mm - 658 W/m² -
1788110858 30° C 66% 1020 hPa 0 mm - 648 W/m² -
1788110555 30° C 68% 1020.1 hPa 0 mm - 627 W/m² -
1788110250 29.44° C 69% 1020.1 hPa 0 mm - 616 W/m² -
1788109945 29.44° C 69% 1020.2 hPa 0 mm - 621 W/m² -
1788109640 29.44° C 70% 1020.3 hPa 0 mm - 645 W/m² -
1788109339 29.44° C 71% 1020.1 hPa 0 mm - 646 W/m² -
1788109038 28.89° C 72% 1020.4 hPa 0 mm - 617 W/m² -
1788108734 28.89° C 73% 1020.4 hPa 0 mm - 168 W/m² -
1788108430 28.89° C 73% 1020.5 hPa 0 mm - 693 W/m² -
1788108126 29.44° C 71% 1020.5 hPa 0 mm - 128 W/m² -
1788107823 28.89° C 73% 1020.4 hPa 0 mm - 119 W/m² -
1788107518 28.89° C 74% 1020.6 hPa 0 mm - 286 W/m² -
1788107212 27.78° C 76% 1020.8 hPa 0 mm - 332 W/m² -
1788106908 27.22° C 78% 1020.7 hPa 0 mm - 561 W/m² -
1788106603 27.22° C 77% 1020.8 hPa 0 mm - 144 W/m² -
1788106297 27.78° C 77% 1020.9 hPa 0 mm - 143 W/m² -
1788105994 27.78° C 76% 1020.8 hPa 0 mm - 142 W/m² -
1788105693 28.33° C 74% 1021 hPa 0 mm - 319 W/m² -
1788105390 28.89° C 71% 1020.8 hPa 0 mm - 208 W/m² -
1788105085 28.89° C 70% 1021 hPa 0 mm - 281 W/m² -
1788104781 28.89° C 70% 1020.9 hPa 0 mm - 702 W/m² -
1788104477 28.89° C 72% 1020.9 hPa 0 mm - 617 W/m² -
1788104173 28.89° C 74% 1020.8 hPa 0 mm - 647 W/m² -
1788103873 28.33° C 75% 1020.7 hPa 0 mm - 586 W/m² -

* Rain latest hour (hover to see other rain measurements)
** Current wind speed in m/s (hover to see current wind gust speed)